You are listening to:
KJFK Tower - New York, New York, United States

KJFK 190751Z 24005KT 10SM BKN110 10/06 A2988 RMK AO2 SLP117 T01000061

If stream doesn't start automatically press the play button
If stream stops then reload player then press play